Time;durP1;ratioP1;P1;durP2;ratioP2;P2;SDS_P1;SDS_P2;PMS_P1;PMS_P2;Temp;Humidity;BMP_temperature;BMP_pressure;BME280_temperature;BME280_humidity;BME280_pressure;Samples;Min_cycle;Max_cycle;Signal;HPM_P1;HPM_P2
2021/07/02 00:02:14;;;;;;;1.17;0.88;;;23.80;57.00;;;;;;6236431;28;20067;-69
2021/07/02 00:05:16;;;;;;;1.05;0.80;;;23.80;57.00;;;;;;6238002;28;20029;-70
2021/07/02 00:08:17;;;;;;;1.50;0.90;;;23.80;57.00;;;;;;6237875;28;20569;-70
2021/07/02 00:11:18;;;;;;;1.00;0.75;;;23.80;57.00;;;;;;6223505;28;20600;-70
2021/07/02 00:14:18;;;;;;;1.48;0.80;;;23.80;57.00;;;;;;6233163;28;20025;-70
2021/07/02 00:17:19;;;;;;;0.75;0.60;;;23.80;57.00;;;;;;6237659;28;20041;-70
2021/07/02 00:20:19;;;;;;;0.80;0.70;;;23.80;57.00;;;;;;6237413;28;20029;-70
2021/07/02 00:23:20;;;;;;;0.82;0.65;;;23.80;57.00;;;;;;6236008;28;20029;-70
2021/07/02 00:26:21;;;;;;;0.70;0.70;;;23.80;57.00;;;;;;6237333;28;20123;-70
2021/07/02 00:29:22;;;;;;;0.57;0.50;;;23.80;57.00;;;;;;6266973;28;20032;-70
2021/07/02 00:32:23;;;;;;;0.60;0.60;;;23.80;57.00;;;;;;6339310;28;20023;-70
2021/07/02 00:35:23;;;;;;;0.95;0.70;;;23.80;57.00;;;;;;6276560;28;20412;-70
2021/07/02 00:38:24;;;;;;;0.88;0.65;;;23.80;57.00;;;;;;6236927;28;20021;-70
2021/07/02 00:41:24;;;;;;;0.73;0.70;;;23.80;57.00;;;;;;6236916;28;20549;-70
2021/07/02 00:44:41;;;;;;;0.88;0.70;;;23.80;57.00;;;;;;6236679;28;20104;-70
2021/07/02 00:47:42;;;;;;;0.73;0.73;;;23.80;57.00;;;;;;6237103;28;20014;-70
2021/07/02 00:50:43;;;;;;;0.70;0.60;;;23.80;57.00;;;;;;6237114;28;20509;-70
2021/07/02 00:53:45;;;;;;;0.60;0.60;;;23.80;57.00;;;;;;6225252;28;20042;-70
2021/07/02 00:56:45;;;;;;;0.93;0.70;;;23.80;57.00;;;;;;6235401;28;20040;-70
2021/07/02 00:59:46;;;;;;;0.70;0.65;;;23.80;57.00;;;;;;6262096;28;20207;-70
2021/07/02 01:02:46;;;;;;;0.90;0.80;;;23.80;57.00;;;;;;6339910;28;20031;-70
2021/07/02 01:05:47;;;;;;;1.50;0.90;;;23.80;57.00;;;;;;6271342;28;20104;-70
2021/07/02 01:08:48;;;;;;;0.43;0.43;;;23.80;57.00;;;;;;6210939;28;20022;-70
2021/07/02 01:11:48;;;;;;;0.75;0.70;;;23.80;57.00;;;;;;6229001;28;20025;-70
2021/07/02 01:14:49;;;;;;;1.05;0.70;;;23.80;57.00;;;;;;6236237;28;20087;-70
2021/07/02 01:17:50;;;;;;;1.13;0.60;;;23.80;57.00;;;;;;6236242;28;20037;-70
2021/07/02 01:20:53;;;;;;;0.73;0.63;;;23.80;57.00;;;;;;6245279;28;20492;-70
2021/07/02 01:23:53;;;;;;;0.82;0.70;;;23.80;57.00;;;;;;6235153;28;20386;-69
2021/07/02 01:26:54;;;;;;;0.85;0.65;;;23.80;57.00;;;;;;6236169;28;20028;-70
2021/07/02 01:29:55;;;;;;;0.63;0.60;;;23.80;57.00;;;;;;6235791;28;20056;-70
2021/07/02 01:32:55;;;;;;;1.13;0.60;;;23.80;57.00;;;;;;6236253;28;20051;-70
2021/07/02 01:36:04;;;;;;;2.75;0.80;;;23.80;57.00;;;;;;6262917;28;20100;-70
2021/07/02 01:39:05;;;;;;;0.50;0.50;;;23.80;57.00;;;;;;6339147;28;20438;-70
2021/07/02 01:42:07;;;;;;;0.50;0.50;;;23.80;57.00;;;;;;6339282;28;20073;-70
2021/07/02 01:45:08;;;;;;;0.40;0.40;;;23.80;57.00;;;;;;6338623;28;20430;-70
2021/07/02 01:48:09;;;;;;;0.50;0.50;;;23.80;57.00;;;;;;6241361;28;20112;-70
2021/07/02 01:51:10;;;;;;;0.88;0.70;;;23.80;57.00;;;;;;6234275;28;20097;-70
2021/07/02 01:54:10;;;;;;;0.73;0.40;;;23.80;57.00;;;;;;6220330;28;20133;-69
2021/07/02 01:57:25;;;;;;;0.43;0.40;;;23.80;57.00;;;;;;6224032;28;20490;-70
2021/07/02 02:00:26;;;;;;;0.47;0.47;;;23.80;57.00;;;;;;6235444;28;20037;-70
2021/07/02 02:03:27;;;;;;;0.60;0.60;;;23.80;57.00;;;;;;6211423;28;20061;-70
2021/07/02 02:06:27;;;;;;;0.52;0.50;;;23.80;57.00;;;;;;6217381;28;20056;-70
2021/07/02 02:09:28;;;;;;;1.17;0.60;;;23.80;57.00;;;;;;6235387;28;20029;-70
2021/07/02 02:12:28;;;;;;;0.68;0.55;;;23.80;57.00;;;;;;6226149;28;20472;-70
2021/07/02 02:15:29;;;;;;;1.23;0.60;;;23.80;57.00;;;;;;6235473;28;20037;-70
2021/07/02 02:18:29;;;;;;;0.65;0.60;;;23.80;57.00;;;;;;6235386;28;20135;-70
2021/07/02 02:21:31;;;;;;;0.70;0.45;;;23.80;57.00;;;;;;6255587;28;20028;-70
2021/07/02 02:24:32;;;;;;;0.43;0.43;;;23.80;57.00;;;;;;6338241;28;20054;-70
2021/07/02 02:27:34;;;;;;;0.85;0.70;;;23.80;57.00;;;;;;6285097;28;20424;-70
2021/07/02 02:30:36;;;;;;;0.77;0.57;;;23.80;57.00;;;;;;6235076;28;20033;-70
2021/07/02 02:33:36;;;;;;;0.50;0.50;;;23.80;57.00;;;;;;6235053;28;20030;-70
2021/07/02 02:36:37;;;;;;;0.73;0.55;;;23.80;57.00;;;;;;6239522;28;20534;-70
2021/07/02 02:39:38;;;;;;;1.25;0.60;;;23.80;57.00;;;;;;6239401;28;20083;-70
2021/07/02 02:42:39;;;;;;;0.55;0.55;;;23.80;57.00;;;;;;6237795;28;20401;-70
2021/07/02 02:45:39;;;;;;;0.88;0.73;;;23.80;57.00;;;;;;6239475;28;20039;-70
2021/07/02 02:48:40;;;;;;;0.60;0.57;;;23.80;57.00;;;;;;6239108;28;20026;-70
2021/07/02 02:51:40;;;;;;;0.70;0.55;;;23.80;57.00;;;;;;6239705;28;20030;-70
2021/07/02 02:54:41;;;;;;;0.95;0.60;;;23.80;57.00;;;;;;6219927;28;20045;-70
2021/07/02 02:57:41;;;;;;;0.80;0.68;;;23.80;57.00;;;;;;6223744;28;20613;-69
2021/07/02 03:00:42;;;;;;;0.88;0.80;;;23.80;57.00;;;;;;6238838;28;20029;-70
2021/07/02 03:03:43;;;;;;;2.05;0.70;;;23.80;57.00;;;;;;6239121;28;20405;-70
2021/07/02 03:06:44;;;;;;;1.52;0.70;;;23.80;57.00;;;;;;6239266;28;20464;-70
2021/07/02 03:09:44;;;;;;;0.75;0.63;;;23.80;57.00;;;;;;6238441;28;20034;-70
2021/07/02 03:12:45;;;;;;;0.70;0.52;;;23.80;57.00;;;;;;6214173;28;20395;-70
2021/07/02 03:15:45;;;;;;;1.13;0.70;;;23.80;57.00;;;;;;6214235;28;20026;-70
2021/07/02 03:18:46;;;;;;;0.40;0.40;;;23.80;57.00;;;;;;6226027;28;20482;-70
2021/07/02 03:21:48;;;;;;;0.50;0.50;;;23.80;57.00;;;;;;6238705;28;20452;-70
2021/07/02 03:24:49;;;;;;;1.00;0.70;;;23.80;57.00;;;;;;6322095;28;20032;-70
2021/07/02 03:27:49;;;;;;;0.75;0.50;;;23.80;57.00;;;;;;6330858;28;20044;-70
2021/07/02 03:30:50;;;;;;;0.88;0.70;;;23.80;57.00;;;;;;6237187;28;20021;-70
2021/07/02 03:33:51;;;;;;;0.50;0.50;;;23.80;57.00;;;;;;6238279;28;20060;-70
2021/07/02 03:36:51;;;;;;;0.70;0.50;;;23.80;57.00;;;;;;6238657;28;20030;-70
2021/07/02 03:39:52;;;;;;;0.50;0.45;;;23.80;57.00;;;;;;6315112;28;20261;-70
2021/07/02 03:42:53;;;;;;;0.60;0.50;;;23.80;57.00;;;;;;6340327;28;20023;-70
2021/07/02 03:45:53;;;;;;;1.15;0.60;;;23.80;57.00;;;;;;6340606;28;20039;-70
2021/07/02 03:48:55;;;;;;;0.45;0.45;;;23.80;57.00;;;;;;6304681;28;20117;-70
2021/07/02 03:51:55;;;;;;;1.95;0.57;;;23.80;57.00;;;;;;6237808;28;20032;-70
2021/07/02 03:54:56;;;;;;;0.70;0.45;;;23.80;57.00;;;;;;6232925;28;20042;-70
2021/07/02 03:57:56;;;;;;;1.00;0.60;;;23.80;57.00;;;;;;6237809;28;20040;-70
2021/07/02 04:00:58;;;;;;;0.85;0.60;;;23.80;57.00;;;;;;6237287;28;20038;-70
2021/07/02 04:03:59;;;;;;;1.63;0.43;;;23.80;57.00;;;;;;6230472;28;20026;-70
2021/07/02 04:06:59;;;;;;;0.50;0.50;;;23.80;57.00;;;;;;6213392;28;20510;-70
2021/07/02 04:10:00;;;;;;;1.02;0.65;;;23.90;57.00;;;;;;6224996;28;20117;-70
2021/07/02 04:13:00;;;;;;;1.75;0.60;;;23.80;57.00;;;;;;6212869;28;20547;-70
2021/07/02 04:16:01;;;;;;;0.50;0.50;;;23.80;57.00;;;;;;6235543;28;20026;-70
2021/07/02 04:19:01;;;;;;;0.57;0.47;;;23.80;57.00;;;;;;6237490;28;20730;-70
2021/07/02 04:22:03;;;;;;;0.50;0.50;;;23.80;57.00;;;;;;6236248;28;20461;-70
2021/07/02 04:25:07;;;;;;;1.38;0.75;;;23.80;56.90;;;;;;6235686;28;20061;-70
2021/07/02 04:28:07;;;;;;;0.50;0.50;;;23.80;57.00;;;;;;6237364;27;20481;-70
2021/07/02 04:31:08;;;;;;;0.68;0.50;;;23.80;57.00;;;;;;6237475;28;20021;-70
2021/07/02 04:34:08;;;;;;;0.65;0.60;;;23.80;57.00;;;;;;6237344;28;20056;-70
2021/07/02 04:37:09;;;;;;;0.50;0.50;;;23.80;57.00;;;;;;6237396;28;20406;-70
2021/07/02 04:40:11;;;;;;;0.30;0.30;;;23.80;57.00;;;;;;6237380;28;20080;-70
2021/07/02 04:43:12;;;;;;;0.40;0.40;;;23.80;57.00;;;;;;6236923;28;20141;-70
2021/07/02 04:46:12;;;;;;;1.08;0.50;;;23.80;57.00;;;;;;6237447;28;20018;-70
2021/07/02 04:49:13;;;;;;;1.35;0.50;;;23.80;57.00;;;;;;6236347;28;20029;-70
2021/07/02 04:52:14;;;;;;;0.80;0.60;;;23.80;57.00;;;;;;6236301;28;20056;-70
2021/07/02 04:55:14;;;;;;;0.55;0.55;;;23.80;57.00;;;;;;6223747;28;20026;-70
2021/07/02 04:58:17;;;;;;;0.50;0.50;;;23.80;57.00;;;;;;6237617;28;20496;-70
2021/07/02 05:01:18;;;;;;;0.50;0.50;;;23.80;57.00;;;;;;6218752;28;20430;-70
2021/07/02 05:04:18;;;;;;;0.50;0.50;;;23.80;57.00;;;;;;6213123;28;20029;-70
2021/07/02 05:07:19;;;;;;;0.60;0.60;;;23.80;57.00;;;;;;6213192;28;20395;-70
2021/07/02 05:10:21;;;;;;;0.68;0.50;;;23.80;57.00;;;;;;6228435;28;20091;-70
2021/07/02 05:13:23;;;;;;;0.43;0.40;;;23.80;57.00;;;;;;6212936;28;20037;-70
2021/07/02 05:16:24;;;;;;;0.40;0.40;;;23.80;57.00;;;;;;6211507;28;20402;-70
2021/07/02 05:19:24;;;;;;;1.60;0.40;;;23.80;57.00;;;;;;6212873;28;20022;-71
2021/07/02 05:22:25;;;;;;;0.45;0.45;;;23.80;57.00;;;;;;6212698;28;20360;-70
2021/07/02 05:25:26;;;;;;;0.40;0.40;;;23.80;57.00;;;;;;6213389;28;20386;-68
2021/07/02 05:28:26;;;;;;;0.40;0.40;;;23.80;57.00;;;;;;6213345;28;20018;-69
2021/07/02 05:31:27;;;;;;;0.50;0.50;;;23.80;56.90;;;;;;6224773;28;20104;-69
2021/07/02 05:34:28;;;;;;;1.50;0.50;;;23.80;57.00;;;;;;6238152;28;20046;-69
2021/07/02 05:37:29;;;;;;;0.60;0.60;;;23.80;57.00;;;;;;6218084;28;20097;-69
2021/07/02 05:40:29;;;;;;;1.08;0.50;;;23.80;56.90;;;;;;6212338;28;20053;-69
2021/07/02 05:43:30;;;;;;;0.30;0.30;;;23.80;56.90;;;;;;6212530;28;20060;-69
2021/07/02 05:46:31;;;;;;;0.40;0.40;;;23.80;56.90;;;;;;6222113;28;20078;-69
2021/07/02 05:49:32;;;;;;;0.50;0.50;;;23.80;56.90;;;;;;6236567;28;20033;-68
2021/07/02 05:52:34;;;;;;;0.65;0.50;;;23.80;57.00;;;;;;6235967;28;20084;-69
2021/07/02 05:55:34;;;;;;;1.27;0.45;;;23.80;56.90;;;;;;6235611;28;20061;-69
2021/07/02 05:58:35;;;;;;;0.52;0.45;;;23.80;56.90;;;;;;6212033;28;20037;-69
2021/07/02 06:01:35;;;;;;;0.35;0.30;;;23.80;56.90;;;;;;6213743;28;20078;-69
2021/07/02 06:04:36;;;;;;;0.40;0.40;;;23.80;56.90;;;;;;6215220;28;20026;-70
2021/07/02 06:07:48;;;;;;;0.50;0.50;;;23.80;57.00;;;;;;6230788;28;20078;-69
2021/07/02 06:10:49;;;;;;;0.40;0.40;;;23.80;56.90;;;;;;6236382;28;20389;-69
2021/07/02 06:13:50;;;;;;;0.40;0.40;;;23.80;56.90;;;;;;6214439;28;20034;-69
2021/07/02 06:16:50;;;;;;;0.68;0.57;;;23.80;57.00;;;;;;6214520;28;20022;-69
2021/07/02 06:19:51;;;;;;;0.40;0.40;;;23.80;56.90;;;;;;6213688;28;20657;-69
2021/07/02 06:22:51;;;;;;;0.85;0.50;;;23.80;56.90;;;;;;6230383;28;20026;-69
2021/07/02 06:25:52;;;;;;;1.02;0.60;;;23.80;57.00;;;;;;6239092;28;20026;-69
2021/07/02 06:28:53;;;;;;;0.60;0.60;;;23.80;57.00;;;;;;6215161;28;20034;-69
2021/07/02 06:31:53;;;;;;;0.50;0.50;;;23.80;56.90;;;;;;6214379;28;20044;-69
2021/07/02 06:34:54;;;;;;;0.75;0.50;;;23.90;57.00;;;;;;6214057;28;20065;-69
2021/07/02 06:37:54;;;;;;;0.55;0.47;;;23.80;57.00;;;;;;6287159;28;20047;-69
2021/07/02 06:40:55;;;;;;;0.80;0.65;;;23.80;56.90;;;;;;6342175;28;20028;-69
2021/07/02 06:43:55;;;;;;;0.57;0.47;;;23.80;56.90;;;;;;6342029;28;20030;-69
2021/07/02 06:46:56;;;;;;;0.50;0.40;;;23.80;56.90;;;;;;6315377;28;20497;-69
2021/07/02 06:49:57;;;;;;;0.73;0.60;;;23.80;57.00;;;;;;6214193;28;20119;-69
2021/07/02 06:52:59;;;;;;;0.40;0.30;;;23.80;56.90;;;;;;6251916;28;20061;-69
2021/07/02 06:56:00;;;;;;;0.70;0.60;;;23.80;56.90;;;;;;6214125;28;20055;-69
2021/07/02 06:59:00;;;;;;;0.55;0.50;;;23.80;56.90;;;;;;6234223;28;20033;-69
2021/07/02 07:02:01;;;;;;;0.57;0.50;;;23.80;56.90;;;;;;6234359;28;20030;-69
2021/07/02 07:05:02;;;;;;;0.70;0.60;;;23.80;56.90;;;;;;6228227;28;20022;-69
2021/07/02 07:08:04;;;;;;;0.60;0.60;;;23.80;56.90;;;;;;6230644;28;20026;-69
2021/07/02 07:11:05;;;;;;;0.40;0.40;;;23.80;56.80;;;;;;6213712;28;20049;-69
2021/07/02 07:14:05;;;;;;;0.52;0.52;;;23.80;56.90;;;;;;6228998;28;20037;-70
2021/07/02 07:17:10;;;;;;;0.40;0.40;;;23.80;56.90;;;;;;6238285;28;20092;-70
2021/07/02 07:20:11;;;;;;;0.68;0.68;;;23.80;56.80;;;;;;6215556;28;20026;-69
2021/07/02 07:23:12;;;;;;;0.70;0.60;;;23.80;56.80;;;;;;6216107;28;20399;-69
2021/07/02 07:26:13;;;;;;;0.75;0.60;;;23.80;56.90;;;;;;6217501;28;20026;-70
2021/07/02 07:29:13;;;;;;;0.50;0.50;;;23.80;56.80;;;;;;6223471;28;20028;-69
2021/07/02 07:32:14;;;;;;;0.60;0.60;;;23.80;56.80;;;;;;6241979;28;20717;-70
2021/07/02 07:35:27;;;;;;;1.25;0.60;;;23.80;56.90;;;;;;6240691;28;20024;-70
2021/07/02 07:38:28;;;;;;;0.60;0.60;;;23.80;56.90;;;;;;6239455;28;20076;-69
2021/07/02 07:41:29;;;;;;;0.93;0.63;;;23.80;56.90;;;;;;6241356;28;20045;-69
2021/07/02 07:44:29;;;;;;;0.52;0.52;;;23.80;56.80;;;;;;6302454;28;20032;-70
2021/07/02 07:47:30;;;;;;;0.88;0.63;;;23.80;56.80;;;;;;6345231;28;20433;-70
2021/07/02 07:50:41;;;;;;;0.95;0.60;;;23.80;56.90;;;;;;6228705;28;20057;-69
2021/07/02 07:53:41;;;;;;;0.90;0.68;;;23.80;56.80;;;;;;6250629;28;20805;-70
2021/07/02 07:56:53;;;;;;;0.77;0.60;;;23.80;56.80;;;;;;6345736;28;20034;-70
2021/07/02 07:59:53;;;;;;;0.43;0.43;;;23.80;56.90;;;;;;6263639;28;20099;-70
2021/07/02 08:02:54;;;;;;;0.80;0.70;;;23.80;56.80;;;;;;6215846;28;20036;-70
2021/07/02 08:05:54;;;;;;;0.90;0.60;;;23.80;56.80;;;;;;6338337;28;20034;-70
2021/07/02 08:08:57;;;;;;;0.68;0.60;;;23.90;56.90;;;;;;6311004;28;20045;-69
2021/07/02 08:11:57;;;;;;;0.80;0.70;;;23.80;56.90;;;;;;6315486;28;20032;-69
2021/07/02 08:14:58;;;;;;;1.02;0.68;;;23.80;56.80;;;;;;6271145;28;20078;-70
2021/07/02 08:17:58;;;;;;;1.25;0.80;;;23.80;56.90;;;;;;6216962;28;20672;-70
2021/07/02 08:20:59;;;;;;;0.85;0.70;;;23.80;56.80;;;;;;6329308;28;20024;-69
2021/07/02 08:23:59;;;;;;;1.27;0.80;;;23.80;56.90;;;;;;6319669;28;20041;-70
2021/07/02 08:27:05;;;;;;;0.50;0.50;;;23.80;56.90;;;;;;6216416;28;20090;-70
2021/07/02 08:30:06;;;;;;;0.80;0.60;;;23.80;56.80;;;;;;6228269;28;20113;-70
2021/07/02 08:33:07;;;;;;;0.75;0.55;;;23.80;56.90;;;;;;6239539;28;20033;-70
2021/07/02 08:36:08;;;;;;;0.73;0.70;;;23.80;56.90;;;;;;6219402;28;20026;-70
2021/07/02 08:39:10;;;;;;;1.15;0.80;;;23.80;56.80;;;;;;6215135;28;20030;-70
2021/07/02 08:42:11;;;;;;;0.70;0.70;;;23.80;56.90;;;;;;6215183;28;20040;-70
2021/07/02 08:45:12;;;;;;;2.78;0.65;;;23.80;56.90;;;;;;6277298;28;20024;-70
2021/07/02 08:48:20;;;;;;;0.60;0.60;;;23.80;56.80;;;;;;6344235;28;20076;-70
2021/07/02 08:51:25;;;;;;;0.57;0.55;;;23.80;56.80;;;;;;6257685;28;20024;-70
2021/07/02 08:54:26;;;;;;;0.80;0.70;;;23.90;56.90;;;;;;6223071;28;20060;-70
2021/07/02 08:57:26;;;;;;;1.05;0.80;;;23.80;56.90;;;;;;6215048;28;20343;-71
2021/07/02 09:00:27;;;;;;;0.80;0.80;;;23.80;56.90;;;;;;6216004;28;20038;-71
2021/07/02 09:03:46;;;;;;;0.75;0.70;;;23.80;56.80;;;;;;6216196;28;20018;-70
2021/07/02 09:07:12;;;;;;;0.50;0.50;;;23.80;56.90;;;;;;6236720;28;20490;-70
2021/07/02 09:10:13;;;;;;;0.60;0.60;;;23.80;56.80;;;;;;6236483;28;20418;-71
2021/07/02 09:13:15;;;;;;;0.88;0.63;;;23.80;56.90;;;;;;6221670;28;20040;-70
2021/07/02 09:16:26;;;;;;;1.67;0.57;;;23.80;56.80;;;;;;6239377;28;20457;-71
2021/07/02 09:19:28;;;;;;;0.88;0.77;;;23.80;56.80;;;;;;6240468;28;20036;-70
2021/07/02 09:22:43;;;;;;;0.55;0.52;;;23.80;56.80;;;;;;6217755;28;20030;-70
2021/07/02 09:25:51;;;;;;;0.88;0.70;;;23.80;56.90;;;;;;6214255;28;20467;-70
2021/07/02 09:29:15;;;;;;;0.75;0.60;;;23.80;56.90;;;;;;6214375;28;20658;-71
2021/07/02 09:32:16;;;;;;;0.82;0.63;;;23.80;56.80;;;;;;6307944;28;20045;-70
2021/07/02 09:35:19;;;;;;;0.70;0.70;;;23.80;56.90;;;;;;6336626;28;20023;-70
2021/07/02 09:38:33;;;;;;;0.80;0.70;;;23.80;56.90;;;;;;6215709;28;20018;-71
2021/07/02 09:41:34;;;;;;;0.60;0.60;;;23.90;56.90;;;;;;6272043;28;20379;-71
2021/07/02 09:44:34;;;;;;;0.50;0.50;;;23.80;56.90;;;;;;6342754;28;20024;-70
2021/07/02 09:47:36;;;;;;;0.90;0.80;;;23.90;56.90;;;;;;6247116;28;20391;-70
2021/07/02 09:50:52;;;;;;;0.68;0.68;;;23.80;56.90;;;;;;6217245;28;20022;-70
2021/07/02 09:54:06;;;;;;;0.70;0.70;;;23.90;56.90;;;;;;6226013;28;20053;-70
2021/07/02 09:57:19;;;;;;;0.50;0.50;;;23.80;56.80;;;;;;6282935;28;20392;-70
2021/07/02 10:00:20;;;;;;;0.80;0.80;;;23.80;56.80;;;;;;6342125;28;20038;-70
2021/07/02 10:03:29;;;;;;;0.70;0.70;;;23.80;56.80;;;;;;6247962;28;20478;-70
2021/07/02 10:06:30;;;;;;;0.73;0.70;;;23.80;56.80;;;;;;6238286;28;20026;-70
2021/07/02 10:09:30;;;;;;;0.63;0.60;;;23.80;56.90;;;;;;6239883;28;20029;-70
2021/07/02 10:12:32;;;;;;;1.10;0.80;;;23.80;56.90;;;;;;6225186;28;20245;-70
2021/07/02 10:15:33;;;;;;;0.65;0.65;;;23.90;56.90;;;;;;6214845;28;20026;-70
2021/07/02 10:18:47;;;;;;;0.80;0.80;;;23.80;56.90;;;;;;6328844;28;20026;-69
2021/07/02 10:21:48;;;;;;;1.40;0.88;;;23.80;56.90;;;;;;6312739;28;20112;-70
2021/07/02 10:24:51;;;;;;;1.08;0.80;;;23.80;56.90;;;;;;6239246;28;20026;-70
2021/07/02 10:27:52;;;;;;;1.00;0.80;;;23.80;56.90;;;;;;6237976;28;20093;-70
2021/07/02 10:30:53;;;;;;;1.40;1.05;;;23.80;56.90;;;;;;6239289;28;20033;-70
2021/07/02 10:33:58;;;;;;;0.85;0.77;;;23.80;56.90;;;;;;6253509;28;20020;-70
2021/07/02 10:37:00;;;;;;;;;;;23.80;56.90;;;;;;6314785;28;20086;-70
2021/07/02 10:40:16;;;;;;;0.70;0.70;;;23.80;56.90;;;;;;6239328;28;20266;-70
2021/07/02 10:43:23;;;;;;;1.13;0.95;;;23.80;56.90;;;;;;6238662;28;20029;-70
2021/07/02 10:46:23;;;;;;;3.80;0.95;;;23.80;56.90;;;;;;6238966;28;20021;-69
2021/07/02 10:49:42;;;;;;;0.70;0.68;;;23.80;56.90;;;;;;6238737;28;20382;-70
2021/07/02 10:52:43;;;;;;;0.80;0.75;;;23.80;56.90;;;;;;6235032;27;20030;-69
2021/07/02 10:55:43;;;;;;;3.13;0.90;;;23.80;56.90;;;;;;6216509;28;20383;-70
2021/07/02 10:58:51;;;;;;;1.05;0.93;;;23.80;56.90;;;;;;6218445;28;20030;-70
2021/07/02 11:02:08;;;;;;;0.80;0.80;;;23.80;56.90;;;;;;6219608;28;20033;-70
2021/07/02 11:05:26;;;;;;;1.27;0.90;;;23.90;56.90;;;;;;6243227;28;20031;-70
2021/07/02 11:08:46;;;;;;;1.00;0.77;;;23.80;56.90;;;;;;6242819;28;20502;-70
2021/07/02 11:12:09;;;;;;;1.63;1.00;;;23.80;56.90;;;;;;6243402;28;20021;-70
2021/07/02 11:15:19;;;;;;;1.38;1.10;;;23.80;56.90;;;;;;6302625;28;20024;-70
2021/07/02 11:18:20;;;;;;;2.10;0.82;;;23.80;56.90;;;;;;6312594;28;20437;-70
2021/07/02 11:21:20;;;;;;;1.27;0.90;;;23.80;56.90;;;;;;6242382;28;20026;-70
2021/07/02 11:24:59;;;;;;;1.00;0.90;;;23.80;56.90;;;;;;6241983;28;20327;-70
2021/07/02 11:28:04;;;;;;;1.05;0.90;;;23.80;56.90;;;;;;6242237;28;20017;-70
2021/07/02 11:31:07;;;;;;;1.08;0.90;;;23.80;56.90;;;;;;6240859;28;20030;-69
2021/07/02 11:34:10;;;;;;;1.20;1.08;;;23.80;56.90;;;;;;6240628;28;20149;-69
2021/07/02 11:37:12;;;;;;;0.93;0.90;;;23.80;56.90;;;;;;6242426;28;20038;-70
2021/07/02 11:40:17;;;;;;;0.73;0.73;;;23.80;56.90;;;;;;6241660;28;20089;-70
2021/07/02 11:43:36;;;;;;;1.20;0.90;;;23.90;56.90;;;;;;6259947;28;20682;-70
2021/07/02 11:46:37;;;;;;;0.70;0.70;;;23.80;56.90;;;;;;6308144;28;20022;-70
2021/07/02 11:49:48;;;;;;;1.60;1.10;;;23.90;57.00;;;;;;6241595;28;20094;-70
2021/07/02 11:52:49;;;;;;;0.75;0.68;;;23.80;56.90;;;;;;6237252;28;20129;-70
2021/07/02 11:56:07;;;;;;;2.10;1.00;;;23.80;56.90;;;;;;6238518;28;20026;-70
2021/07/02 11:59:16;;;;;;;0.80;0.80;;;23.80;56.90;;;;;;6231394;28;20022;-70
2021/07/02 12:02:16;;;;;;;1.70;1.00;;;23.80;56.90;;;;;;6215098;28;20112;-70
2021/07/02 12:05:17;;;;;;;1.38;0.80;;;23.80;56.90;;;;;;6308404;28;20037;-69
2021/07/02 12:08:22;;;;;;;1.50;1.08;;;23.80;56.90;;;;;;6344345;28;20012;-70
2021/07/02 12:11:38;;;;;;;0.80;0.80;;;23.80;56.90;;;;;;6225822;28;20037;-70
2021/07/02 12:14:39;;;;;;;0.85;0.82;;;23.80;56.90;;;;;;6226051;28;20040;-70
2021/07/02 12:17:39;;;;;;;1.00;0.80;;;23.80;56.90;;;;;;6241247;28;20371;-70
2021/07/02 12:20:40;;;;;;;1.08;0.80;;;23.90;56.90;;;;;;6314423;28;20027;-70
2021/07/02 12:23:43;;;;;;;0.85;0.80;;;23.80;56.90;;;;;;6341652;28;20030;-69
2021/07/02 12:26:56;;;;;;;1.08;0.90;;;23.80;57.00;;;;;;6240708;28;20025;-69
2021/07/02 12:29:59;;;;;;;0.85;0.80;;;23.80;56.90;;;;;;6228760;28;20106;-70
2021/07/02 12:33:00;;;;;;;1.15;0.80;;;23.80;56.90;;;;;;6214910;28;20037;-70
2021/07/02 12:36:07;;;;;;;1.27;1.17;;;23.80;56.90;;;;;;6222854;28;20121;-70
2021/07/02 12:39:12;;;;;;;1.10;1.00;;;23.80;56.90;;;;;;6236858;28;20033;-68
2021/07/02 12:42:21;;;;;;;1.08;0.77;;;23.80;57.00;;;;;;6215648;28;20122;-69
2021/07/02 12:45:22;;;;;;;1.35;1.02;;;23.80;56.90;;;;;;6226599;28;20017;-70
2021/07/02 12:48:26;;;;;;;0.68;0.68;;;23.80;56.90;;;;;;6240821;28;20033;-69
2021/07/02 12:51:33;;;;;;;1.23;1.00;;;23.80;56.90;;;;;;6240172;28;20034;-70
2021/07/02 12:57:55;;;;;;;1.00;0.82;;;23.80;57.00;;;;;;6215994;28;20036;-70
2021/07/02 13:01:05;;;;;;;0.95;0.90;;;23.80;57.60;;;;;;6229948;28;20025;-70
2021/07/02 13:04:05;;;;;;;1.10;0.93;;;23.80;56.90;;;;;;6240337;28;20357;-70
2021/07/02 13:07:07;;;;;;;1.20;1.10;;;23.80;57.00;;;;;;6217340;28;20029;-70
2021/07/02 13:10:09;;;;;;;1.13;0.90;;;23.80;56.90;;;;;;6247348;28;20034;-68
2021/07/02 13:13:33;;;;;;;1.02;0.88;;;23.80;56.90;;;;;;6239589;28;20258;-69
2021/07/02 13:16:47;;;;;;;1.48;1.10;;;23.80;56.90;;;;;;6292774;28;20027;-70
2021/07/02 13:19:53;;;;;;;1.40;1.05;;;23.80;57.00;;;;;;6343279;28;20028;-69
2021/07/02 13:23:04;;;;;;;1.10;1.00;;;23.80;56.90;;;;;;6224377;28;20042;-70
2021/07/02 13:26:08;;;;;;;1.15;1.05;;;23.80;56.90;;;;;;6222082;28;20068;-70
2021/07/02 13:29:11;;;;;;;1.00;0.90;;;23.80;56.90;;;;;;6240199;28;20068;-70
2021/07/02 13:32:24;;;;;;;1.30;0.90;;;23.80;57.00;;;;;;6237975;28;20033;-70
2021/07/02 13:35:24;;;;;;;0.70;0.70;;;23.80;56.90;;;;;;6334476;28;20473;-69
2021/07/02 13:38:26;;;;;;;1.02;0.93;;;23.80;56.90;;;;;;6238541;28;20025;-70
2021/07/02 13:41:27;;;;;;;1.10;0.98;;;23.80;56.90;;;;;;6334930;28;20026;-70
2021/07/02 13:44:29;;;;;;;1.27;1.00;;;23.80;56.90;;;;;;6341129;28;20020;-70
2021/07/02 13:47:34;;;;;;;1.00;0.90;;;23.80;56.90;;;;;;6273852;28;20057;-70
2021/07/02 13:50:40;;;;;;;1.17;0.80;;;23.90;57.00;;;;;;6239645;28;20309;-70
2021/07/02 13:53:41;;;;;;;1.50;0.90;;;23.80;56.90;;;;;;6190491;28;20065;-70
2021/07/02 13:56:41;;;;;;;1.23;1.10;;;23.80;56.90;;;;;;6239758;28;20020;-69
2021/07/02 13:59:42;;;;;;;1.95;0.93;;;23.80;56.90;;;;;;6342648;28;20476;-69
2021/07/02 14:02:42;;;;;;;1.10;1.00;;;23.80;57.00;;;;;;6276642;28;20029;-70
2021/07/02 14:05:43;;;;;;;1.10;1.00;;;23.80;57.00;;;;;;6238236;28;20071;-69
2021/07/02 14:08:47;;;;;;;0.77;0.77;;;23.80;57.00;;;;;;6238039;28;20038;-70
2021/07/02 14:11:48;;;;;;;0.73;0.73;;;23.80;57.00;;;;;;6228605;28;20026;-70
2021/07/02 14:14:48;;;;;;;0.90;0.80;;;23.80;57.00;;;;;;6238760;28;20036;-70
2021/07/02 14:17:49;;;;;;;0.73;0.73;;;23.80;57.00;;;;;;6224770;28;20026;-70
2021/07/02 14:20:49;;;;;;;1.10;0.80;;;23.80;56.90;;;;;;6213251;28;20636;-70
2021/07/02 14:23:50;;;;;;;1.80;1.00;;;23.80;57.00;;;;;;6235984;28;20033;-70
2021/07/02 14:26:51;;;;;;;1.10;1.00;;;23.80;56.90;;;;;;6238729;28;20406;-70
2021/07/02 14:29:51;;;;;;;1.23;1.13;;;23.80;57.00;;;;;;6239260;28;20470;-70
2021/07/02 14:32:52;;;;;;;1.70;1.33;;;23.80;56.90;;;;;;6242023;28;20035;-70
2021/07/02 14:35:52;;;;;;;1.15;1.05;;;23.80;56.90;;;;;;6242736;28;20022;-70
2021/07/02 14:38:53;;;;;;;1.25;0.95;;;23.80;57.00;;;;;;6243327;28;20036;-69
2021/07/02 14:41:53;;;;;;;1.20;1.00;;;23.80;56.90;;;;;;6239871;28;20030;-70
2021/07/02 14:44:54;;;;;;;1.17;1.00;;;23.80;56.90;;;;;;6217105;28;20502;-69
2021/07/02 14:47:54;;;;;;;1.02;0.90;;;23.80;56.90;;;;;;6217149;28;20143;-69
2021/07/02 14:50:58;;;;;;;1.38;1.17;;;23.80;57.00;;;;;;6218442;28;20482;-70
2021/07/02 14:53:59;;;;;;;1.65;1.20;;;23.80;56.90;;;;;;6216708;28;20583;-70
2021/07/02 14:57:00;;;;;;;1.25;1.02;;;23.80;57.00;;;;;;6224935;28;20033;-70
2021/07/02 15:00:00;;;;;;;1.27;1.13;;;23.80;57.00;;;;;;6242711;28;20045;-70
2021/07/02 15:03:01;;;;;;;1.73;1.40;;;23.80;57.00;;;;;;6233443;28;20369;-70
2021/07/02 15:06:02;;;;;;;0.95;0.90;;;23.80;56.90;;;;;;6331593;28;20137;-70
2021/07/02 15:09:02;;;;;;;1.10;1.00;;;23.80;57.00;;;;;;6320275;28;20028;-70
2021/07/02 15:12:03;;;;;;;1.10;1.00;;;23.80;57.00;;;;;;6222916;28;20105;-70
2021/07/02 15:15:05;;;;;;;1.23;1.10;;;23.90;57.00;;;;;;6341258;28;20091;-70
2021/07/02 15:18:05;;;;;;;1.38;1.27;;;23.80;57.00;;;;;;6345589;28;20388;-70
2021/07/02 15:21:10;;;;;;;1.40;1.30;;;23.80;57.00;;;;;;6346327;28;20023;-70
2021/07/02 15:24:10;;;;;;;1.17;1.08;;;23.80;57.00;;;;;;6283718;28;20025;-70
2021/07/02 15:27:12;;;;;;;0.80;0.70;;;23.80;57.00;;;;;;6242873;28;20106;-70
2021/07/02 15:30:37;;;;;;;1.90;1.10;;;23.80;57.00;;;;;;6196161;28;20026;-70
2021/07/02 15:33:39;;;;;;;0.93;0.82;;;23.80;57.00;;;;;;6210068;28;20060;-70
2021/07/02 15:36:40;;;;;;;1.60;0.90;;;23.80;57.00;;;;;;6242076;28;20493;-70
2021/07/02 15:39:41;;;;;;;1.45;1.10;;;23.80;57.00;;;;;;6311698;28;20036;-70
2021/07/02 15:42:42;;;;;;;1.38;1.27;;;23.80;57.00;;;;;;6345622;28;20050;-70
2021/07/02 15:45:42;;;;;;;1.00;0.90;;;23.80;57.00;;;;;;6345838;28;20020;-70
2021/07/02 15:48:43;;;;;;;1.63;1.52;;;23.80;57.00;;;;;;6314219;28;20445;-69
2021/07/02 15:51:44;;;;;;;0.93;0.90;;;23.80;57.00;;;;;;6240560;28;20327;-69
2021/07/02 15:54:44;;;;;;;1.42;1.13;;;23.80;57.00;;;;;;6226903;28;20160;-70
2021/07/02 15:57:45;;;;;;;1.10;1.00;;;23.80;57.00;;;;;;6217112;28;20022;-70